Aérodrome :
LOGIN :

S'inscrire | Disclaimer

   EN    FR    IT 

 










Légende :    VFR   VFR Marginal   IFR   IFR Intensif   IFR Très Intensif
Visi : 
Plafond : 
>= 8 km
>= 3000ft
5 à 8 km
1000 à 3000 ft
1500m à 5 km
500 à 1000 ft
800 à 1500m
200 à 500 ft
< 800m
< 200 ft
Symboles :   Orages  Brouillard  Fortes neiges  Fortes précipitations  Vent > 20 kt
SIGMETs :   Divers  Orages  Givrage  Turbulence  Onde Orograph.  Cendres Volcan.







- Altitude de l'aérodrome : 220 ft
- Code IATA : CWL
- Voir les cartes d'approche


EGFF - Cardiff Rhoose

DERNIER METAR :
  • 142120Z AUTO VRB03KT 9999 SCT022 10/07 Q1019

METARs EXPIRÉS :
  • 142050Z AUTO 16009KT 9999 NCD 10/08 Q1019
  • 142020Z AUTO 18005KT 150V220 9999 SCT024 10/07 Q1019
  • 141950Z AUTO 18004KT 9999 SCT023 10/08 Q1019
  • 141920Z AUTO 19007KT 9999 SCT024 11/08 Q1019
  • 141850Z AUTO 17009KT 9999 BKN023 11/09 Q1019

TAF TAF EGFF
Valide du 14 à 18h jusqu'au 15 à 18h UTC


141653Z 1418/1518 15008KT 9999 SCT025
TEMPO 1505/1518 8000 BKN012
PROB30
TEMPO 1508/1518 BKN008
ATIS : +44 1446 729 319
Pas de NOTAMs connus pour ce terrain.
1 SIGMET publié pour la FIR London (EGTT) :
 
Onde orographique forte
EGTT SIGMET 06 VALID 141930/142330 EGRR
EGTT LONDON FIR SEV MTW FCST N OF LINE N5206 W00557 - N5333 E00342 FL020/320 MOV N 10KT WKN=



MET'MAP, la Météo Aéronautique d'un coup d'oeil ! - Copyright ORBIFLY Décembre 2007 - Disclaimer

ORBIFLY MET'MAP TEAM :

Programmation & Développement : Alexandra Zaïnal
Conception & Développement : Baudouin d'Aumeries
Co-Programmation & Développement : Marc-Olivier Méhu
Soutien technique & logistique : Manuel Goepfert

Contact : metmap@orbifly.com




SOURCES & CREDITS :

   NOAA